Ardmore, Missouri
Current Conditions -  °F | °C
As of 9:55 PM on Friday 19 Dec 2014 (Local Time) from KIRK Reporting Station
Haze Haze  
Wind Chill: 26°   Ceiling: 1000
Heat Index: 32°   Visibility: 5mi
Dew Point: 31°   Wind: 6mph
Humidity: 96%   Direction: 130°SE
Pressure: 30.24"   Gusts: NA
Location:  39.6493°N, 92.4492°W
Report Text: KIRK 200355Z AUTO 13005KT 5SM BR OVC010 00/M01 A3024 RMK AO2 CIG 007V012 SLP253 T00001006
Loading
Personal Weather Stations






























Interactive Weather Map New forecast layout! Learn more

10-Day Weather Forecast

Advertisements
Track Severe Weather on mobile